Time;durP1;ratioP1;P1;durP2;ratioP2;P2;SDS_P1;SDS_P2;PMS_P1;PMS_P2;Temp;Humidity;BMP_temperature;BMP_pressure;BME280_temperature;BME280_humidity;BME280_pressure;Samples;Min_cycle;Max_cycle;Signal;HPM_P1;HPM_P2
2021/05/06 00:02:55;;;;;;;;;;;2.30;99.90;;;;;;5057737;28;19908;-76
2021/05/06 00:06:08;;;;;;;;;;;2.20;99.90;;;;;;5056366;28;19927;-75
2021/05/06 00:32:55;;;;;;;;;;;1.50;99.90;;;;;;5059091;28;20320;-76
2021/05/06 00:35:25;;;;;;;;;;;1.50;99.90;;;;;;5061475;28;20309;-76
2021/05/06 01:02:14;;;;;;;;;;;1.10;99.90;;;;;;5060133;28;19916;-76
2021/05/06 01:04:58;;;;;;;;;;;1.00;99.90;;;;;;5060462;28;19905;-76
2021/05/06 01:12:21;;;;;;;;;;;0.90;99.90;;;;;;5060943;28;20285;-76
2021/05/06 01:14:48;;;;;;;;;;;0.90;99.90;;;;;;5061119;28;19908;-76
2021/05/06 01:17:17;;;;;;;;;;;0.80;99.90;;;;;;5061132;28;19909;-76
2021/05/06 01:19:45;;;;;;;;;;;0.80;99.90;;;;;;5061398;28;19908;-76
2021/05/06 01:22:13;;;;;;;;;;;0.80;99.90;;;;;;5060859;28;19909;-76
2021/05/06 01:24:40;;;;;;;;;;;0.80;99.90;;;;;;5061417;28;19999;-76
2021/05/06 01:27:12;;;;;;;;;;;0.70;99.90;;;;;;5060088;28;19905;-76
2021/05/06 01:32:26;;;;;;;;;;;0.60;99.90;;;;;;5059632;28;19912;-76
2021/05/06 01:34:59;;;;;;;;;;;0.60;99.90;;;;;;5059712;28;20248;-76
2021/05/06 01:37:33;;;;;;;;;;;0.60;99.90;;;;;;5059459;28;19909;-76
2021/05/06 01:48:15;;;;;;;;;;;0.50;99.90;;;;;;4979000;28;19913;-76
2021/05/06 01:59:03;;;;;;;;;;;0.80;99.90;;;;;;5060700;28;20267;-76
2021/05/06 02:01:31;;;;;;;;;;;0.90;99.90;;;;;;5059936;28;19909;-76
2021/05/06 02:03:58;;;;;;;;;;;1.00;99.90;;;;;;5060153;28;19904;-76
2021/05/06 02:06:26;;;;;;;;;;;1.10;99.90;;;;;;5060184;28;19905;-76
2021/05/06 02:08:53;;;;;;;;;;;1.20;99.90;;;;;;5059298;28;19939;-76
2021/05/06 02:11:23;;;;;;;;;;;1.20;99.90;;;;;;5058908;28;19991;-76
2021/05/06 02:13:52;;;;;;;;;;;1.30;99.90;;;;;;5059175;28;20263;-76
2021/05/06 02:16:29;;;;;;;;;;;1.40;99.90;;;;;;5058764;28;19904;-76
2021/05/06 02:18:57;;;;;;;;;;;1.40;99.90;;;;;;5059342;28;19982;-76
2021/05/06 02:21:24;;;;;;;;;;;1.50;99.90;;;;;;5058940;28;20074;-76
2021/05/06 02:23:51;;;;;;;;;;;1.50;99.90;;;;;;5058844;28;20247;-76
2021/05/06 02:26:19;;;;;;;;;;;1.50;99.90;;;;;;5058899;28;19974;-76
2021/05/06 02:28:46;;;;;;;;;;;1.60;99.90;;;;;;5058765;28;19912;-76
2021/05/06 02:31:16;;;;;;;;;;;1.60;99.90;;;;;;5059665;28;19905;-76
2021/05/06 02:33:44;;;;;;;;;;;1.70;99.90;;;;;;5059752;28;20194;-76
2021/05/06 02:36:12;;;;;;;;;;;1.70;99.90;;;;;;5059070;28;20003;-76
2021/05/06 02:38:39;;;;;;;;;;;1.70;99.90;;;;;;5059475;28;19950;-76
2021/05/06 02:41:07;;;;;;;;;;;1.80;99.90;;;;;;5059769;28;19912;-76
2021/05/06 02:43:34;;;;;;;;;;;1.80;99.90;;;;;;5059587;28;19959;-76
2021/05/06 02:46:01;;;;;;;;;;;1.80;99.90;;;;;;5059155;28;19904;-76
2021/05/06 02:48:28;;;;;;;;;;;1.90;99.90;;;;;;5041504;28;19904;-76
2021/05/06 02:50:59;;;;;;;;;;;1.90;99.90;;;;;;5058664;28;19905;-76
2021/05/06 02:53:34;;;;;;;;;;;2.00;99.90;;;;;;5058234;28;19911;-76
2021/05/06 02:56:09;;;;;;;;;;;2.00;99.90;;;;;;5057163;28;19904;-76
2021/05/06 03:04:09;;;;;;;;;;;2.10;99.90;;;;;;5057931;28;20323;-76
2021/05/06 03:06:46;;;;;;;;;;;2.20;99.90;;;;;;5057775;28;19904;-76
2021/05/06 03:14:52;;;;;;;;;;;2.80;99.90;;;;;;5058655;28;19905;-76
2021/05/06 03:22:53;;;;;;;;;;;3.20;99.90;;;;;;5058686;28;19915;-76
2021/05/06 03:25:21;;;;;;;;;;;3.30;99.90;;;;;;5058408;28;19904;-76
2021/05/06 03:27:59;;;;;;;;;;;3.30;99.90;;;;;;5058623;28;19923;-76
2021/05/06 03:30:54;;;;;;;;;;;3.40;99.90;;;;;;5058041;28;19912;-76
2021/05/06 03:42:05;;;;;;;;;;;3.40;99.90;;;;;;5037262;28;19931;-76
2021/05/06 03:44:48;;;;;;;;;;;3.40;99.90;;;;;;5037410;28;19912;-76
2021/05/06 04:25:41;;;;;;;;;;;3.50;99.90;;;;;;5037302;28;19909;-76
2021/05/06 04:30:51;;;;;;;;;;;3.50;99.90;;;;;;5037156;28;19904;-76
2021/05/06 04:36:10;;;;;;;;;;;3.50;99.90;;;;;;5050725;28;19934;-76
2021/05/06 04:38:38;;;;;;;;;;;3.50;99.90;;;;;;5057402;28;20190;-76
2021/05/06 04:54:32;;;;;;;;;;;3.20;99.90;;;;;;5056917;28;19923;-76
2021/05/06 05:04:56;;;;;;;;;;;3.00;99.90;;;;;;5056584;28;19955;-75
2021/05/06 05:10:19;;;;;;;;;;;3.00;99.90;;;;;;5056394;28;19928;-73
2021/05/06 05:13:03;;;;;;;;;;;3.00;99.90;;;;;;5056436;28;19905;-74
2021/05/06 05:23:23;;;;;;;;;;;3.10;99.90;;;;;;5061260;28;19905;-73
2021/05/06 05:23:55;;;;;;;;;;;3.20;99.90;;;;;;5058106;28;19915;-73
2021/05/06 05:26:23;;;;;;;;;;;3.30;99.90;;;;;;5060872;28;19905;-74
2021/05/06 05:28:50;;;;;;;;;;;3.30;99.90;;;;;;5061104;28;19911;-74
2021/05/06 05:31:17;;;;;;;;;;;3.40;99.90;;;;;;5060708;28;19954;-74
2021/05/06 05:33:50;;;;;;;;;;;3.50;99.90;;;;;;5060818;28;19908;-74
2021/05/06 05:36:20;;;;;;;;;;;3.50;99.90;;;;;;5059298;28;19951;-74
2021/05/06 05:55:09;;;;;;;;;;;3.80;99.90;;;;;;5059628;28;19958;-74
2021/05/06 05:57:37;;;;;;;;;;;3.80;99.90;;;;;;5041721;28;19912;-74
2021/05/06 06:00:04;;;;;;;;;;;3.70;99.90;;;;;;5060258;28;20323;-75
2021/05/06 06:02:34;;;;;;;;;;;3.70;99.90;;;;;;5042312;28;19923;-74
2021/05/06 06:05:01;;;;;;;;;;;3.70;99.90;;;;;;5060058;28;19905;-73
2021/05/06 06:07:28;;;;;;;;;;;3.70;99.90;;;;;;5059716;28;20011;-73
2021/05/06 06:09:56;;;;;;;;;;;3.70;99.90;;;;;;5059852;28;19999;-72
2021/05/06 06:12:23;;;;;;;;;;;3.70;99.90;;;;;;5060115;28;19909;-74
2021/05/06 06:14:59;;;;;;;;;;;3.70;99.90;;;;;;5059991;28;19909;-73
2021/05/06 06:17:27;;;;;;;;;;;3.80;99.90;;;;;;5059331;28;19912;-73
2021/05/06 06:19:57;;;;;;;;;;;3.80;99.90;;;;;;5058850;28;19948;-74
2021/05/06 06:22:26;;;;;;;;;;;3.80;99.90;;;;;;5059150;28;20015;-74
2021/05/06 06:24:54;;;;;;;;;;;3.80;99.90;;;;;;5058959;28;19912;-73
2021/05/06 06:27:21;;;;;;;;;;;3.80;99.90;;;;;;5059218;28;19905;-74
2021/05/06 06:29:48;;;;;;;;;;;3.80;99.90;;;;;;5057743;28;19904;-74
2021/05/06 06:32:17;;;;;;;;;;;3.90;99.90;;;;;;5058710;28;20244;-78
2021/05/06 06:34:44;;;;;;;;;;;3.90;99.90;;;;;;5058515;28;19944;-75
2021/05/06 06:37:11;;;;;;;;;;;3.90;99.90;;;;;;5058571;28;19913;-77
2021/05/06 06:39:39;;;;;;;;;;;4.00;99.90;;;;;;5058898;28;19905;-77
2021/05/06 06:42:08;;;;;;;;;;;4.00;99.90;;;;;;5059474;28;19913;-76
2021/05/06 06:44:36;;;;;;;;;;;4.00;99.90;;;;;;5059266;28;19916;-77
2021/05/06 06:47:04;;;;;;;;;;;4.00;99.90;;;;;;5059570;28;19905;-76
2021/05/06 06:49:36;;;;;;;;;;;4.00;99.90;;;;;;5059801;28;19934;-75
2021/05/06 06:52:04;;;;;;;;;;;4.10;99.90;;;;;;5059417;28;20315;-75
2021/05/06 06:54:31;;;;;;;;;;;4.10;99.90;;;;;;5041966;28;19935;-75
2021/05/06 06:56:58;;;;;;;;;;;4.10;99.90;;;;;;5059229;28;19980;-75
2021/05/06 06:59:27;;;;;;;;;;;4.10;99.90;;;;;;5059929;28;19991;-75
2021/05/06 07:01:54;;;;;;;;;;;4.10;99.90;;;;;;5058874;28;19971;-74
2021/05/06 07:04:21;;;;;;;;;;;4.10;99.90;;;;;;5058951;28;19905;-75
2021/05/06 07:06:48;;;;;;;;;;;4.10;99.90;;;;;;5058109;28;19904;-75
2021/05/06 07:09:16;;;;;;;;;;;4.20;99.90;;;;;;5058007;28;19907;-75
2021/05/06 07:11:43;;;;;;;;;;;4.10;99.90;;;;;;5058089;28;19958;-75
2021/05/06 07:14:11;;;;;;;;;;;4.20;99.90;;;;;;5058583;28;19995;-75
2021/05/06 07:16:38;;;;;;;;;;;4.20;99.90;;;;;;5057710;28;19950;-75
2021/05/06 07:19:06;;;;;;;;;;;4.20;99.90;;;;;;5058109;28;19912;-75
2021/05/06 07:21:33;;;;;;;;;;;4.20;99.90;;;;;;5057430;28;19927;-75
2021/05/06 07:24:00;;;;;;;;;;;4.20;99.90;;;;;;5058020;28;19900;-76
2021/05/06 07:26:28;;;;;;;;;;;4.20;99.90;;;;;;5057903;28;19905;-75
2021/05/06 07:28:55;;;;;;;;;;;4.20;99.90;;;;;;5059018;28;19909;-75
2021/05/06 07:31:22;;;;;;;;;;;4.20;99.90;;;;;;5040829;28;20205;-78
2021/05/06 07:33:50;;;;;;;;;;;4.20;99.90;;;;;;5040837;28;19927;-75
2021/05/06 07:36:18;;;;;;;;;;;4.20;99.90;;;;;;5057598;28;20267;-74
2021/05/06 07:38:46;;;;;;;;;;;4.20;99.90;;;;;;5057464;28;19962;-75
2021/05/06 07:41:13;;;;;;;;;;;4.20;99.90;;;;;;5057360;28;20292;-75
2021/05/06 07:43:44;;;;;;;;;;;4.20;99.90;;;;;;5057572;28;20216;-75
2021/05/06 07:46:12;;;;;;;;;;;4.30;99.90;;;;;;5057156;28;19958;-75
2021/05/06 07:48:39;;;;;;;;;;;4.30;99.90;;;;;;5056713;28;19905;-74
2021/05/06 07:51:07;;;;;;;;;;;4.40;99.90;;;;;;5056576;28;19991;-75
2021/05/06 07:53:42;;;;;;;;;;;4.40;99.90;;;;;;5038510;28;19960;-74
2021/05/06 07:56:10;;;;;;;;;;;4.50;99.90;;;;;;5056208;28;19905;-75
2021/05/06 07:58:37;;;;;;;;;;;4.60;99.90;;;;;;5056267;28;19905;-74
2021/05/06 08:01:04;;;;;;;;;;;4.70;99.90;;;;;;5056685;28;20054;-73
2021/05/06 08:03:33;;;;;;;;;;;4.80;99.90;;;;;;5056387;28;19909;-76
2021/05/06 08:06:01;;;;;;;;;;;5.00;99.90;;;;;;5056647;28;19905;-75
2021/05/06 08:08:28;;;;;;;;;;;5.10;99.90;;;;;;5057029;28;20289;-75
2021/05/06 08:10:57;;;;;;;;;;;5.10;99.90;;;;;;5057045;28;19915;-73
2021/05/06 08:13:24;;;;;;;;;;;5.10;99.90;;;;;;5057293;28;19905;-74
2021/05/06 08:15:52;;;;;;;;;;;5.20;99.90;;;;;;5057363;28;19939;-75
2021/05/06 08:18:19;;;;;;;;;;;5.20;99.90;;;;;;5057127;28;19904;-76
2021/05/06 08:20:46;;;;;;;;;;;5.20;99.90;;;;;;5057170;28;20212;-73
2021/05/06 08:23:13;;;;;;;;;;;5.30;99.90;;;;;;5056795;28;19912;-73
2021/05/06 08:25:41;;;;;;;;;;;5.50;99.90;;;;;;5057464;28;19954;-74
2021/05/06 08:28:08;;;;;;;;;;;5.70;99.90;;;;;;5056551;28;19912;-75
2021/05/06 08:30:36;;;;;;;;;;;5.80;99.90;;;;;;5056137;28;20320;-75
2021/05/06 08:33:04;;;;;;;;;;;5.90;99.90;;;;;;5056092;28;19904;-75
2021/05/06 08:35:31;;;;;;;;;;;6.00;99.90;;;;;;4978791;28;2210415;-74
2021/05/06 08:37:58;;;;;;;;;;;6.30;99.90;;;;;;5056804;28;19909;-75
2021/05/06 08:40:25;;;;;;;;;;;6.40;99.90;;;;;;5038927;28;19913;-75
2021/05/06 08:42:54;;;;;;;;;;;6.50;99.90;;;;;;5056807;28;19916;-75
2021/05/06 08:45:34;;;;;;;;;;;6.60;99.90;;;;;;5057015;28;19952;-73
2021/05/06 08:48:02;;;;;;;;;;;6.70;99.90;;;;;;5056829;28;20328;-76
2021/05/06 08:50:30;;;;;;;;;;;6.90;99.90;;;;;;5057292;28;19904;-73
2021/05/06 08:52:58;;;;;;;;;;;7.00;99.90;;;;;;5057615;28;19912;-75
2021/05/06 08:55:25;;;;;;;;;;;7.00;99.90;;;;;;5061719;28;19916;-75
2021/05/06 08:57:52;;;;;;;;;;;7.10;99.90;;;;;;5043492;28;20360;-74
2021/05/06 09:00:19;;;;;;;;;;;7.20;99.90;;;;;;5043898;28;20197;-75
2021/05/06 09:02:47;;;;;;;;;;;7.30;99.90;;;;;;5061331;28;19975;-72
2021/05/06 09:05:15;;;;;;;;;;;7.20;99.90;;;;;;5060458;28;19913;-74
2021/05/06 09:07:42;;;;;;;;;;;7.30;99.90;;;;;;5042278;28;19912;-73
2021/05/06 09:10:09;;;;;;;;;;;7.40;99.90;;;;;;5060590;28;19911;-72
2021/05/06 09:12:38;;;;;;;;;;;7.50;99.90;;;;;;5060042;28;19948;-74
2021/05/06 09:15:18;;;;;;;;;;;7.50;99.90;;;;;;5042255;28;19999;-74
2021/05/06 09:17:45;;;;;;;;;;;7.60;99.90;;;;;;5059989;28;19916;-76
2021/05/06 09:20:20;;;;;;;;;;;7.70;99.90;;;;;;5061221;28;20307;-76
2021/05/06 09:22:54;;;;;;;;;;;7.80;99.90;;;;;;5060834;28;19931;-76
2021/05/06 09:25:26;;;;;;;;;;;7.90;99.90;;;;;;5061052;28;19905;-76
2021/05/06 09:28:03;;;;;;;;;;;8.00;99.90;;;;;;5061020;28;19905;-78
2021/05/06 09:30:34;;;;;;;;;;;8.00;99.90;;;;;;5061157;28;20412;-76
2021/05/06 09:33:08;;;;;;;;;;;8.00;99.90;;;;;;5060770;28;20214;-85
2021/05/06 09:35:45;;;;;;;;;;;8.10;99.90;;;;;;5060385;28;20003;-77
2021/05/06 09:38:32;;;;;;;;;;;8.10;99.90;;;;;;5059684;28;20034;-75
2021/05/06 09:41:03;;;;;;;;;;;8.20;99.90;;;;;;5059852;28;19905;-74
2021/05/06 09:43:41;;;;;;;;;;;8.30;99.90;;;;;;5059640;28;19908;-75
2021/05/06 09:46:23;;;;;;;;;;;8.50;99.90;;;;;;5059673;28;20062;-74
2021/05/06 09:48:56;;;;;;;;;;;8.60;99.90;;;;;;5059945;28;19905;-76
2021/05/06 09:51:37;;;;;;;;;;;8.80;99.90;;;;;;5059710;28;20360;-76
2021/05/06 09:54:06;;;;;;;;;;;8.80;99.90;;;;;;5059779;28;19948;-75
2021/05/06 09:56:34;;;;;;;;;;;8.80;99.90;;;;;;5059294;28;19911;-75
2021/05/06 09:59:03;;;;;;;;;;;8.80;99.90;;;;;;5059793;28;19905;-75
2021/05/06 10:01:38;;;;;;;;;;;8.90;99.90;;;;;;5042437;28;19920;-73
2021/05/06 10:04:19;;;;;;;;;;;9.10;99.90;;;;;;5059796;28;19913;-75
2021/05/06 10:07:03;;;;;;;;;;;9.40;99.90;;;;;;5059823;28;19904;-74
2021/05/06 10:09:31;;;;;;;;;;;9.60;99.90;;;;;;5060455;28;19905;-73
2021/05/06 10:11:59;;;;;;;;;;;9.90;99.90;;;;;;5060314;28;19905;-74
2021/05/06 10:14:25;;;;;;;;;;;10.20;99.90;;;;;;5059922;28;19905;-73
2021/05/06 10:16:52;;;;;;;;;;;10.40;99.90;;;;;;5060037;28;19991;-73
2021/05/06 10:19:19;;;;;;;;;;;10.60;99.90;;;;;;5041596;28;19905;-73
2021/05/06 10:21:46;;;;;;;;;;;10.60;99.90;;;;;;5059196;28;19908;-72
2021/05/06 10:24:17;;;;;;;;;;;10.60;97.80;;;;;;5040987;28;19905;-73
2021/05/06 10:26:50;;;;;;;;;;;10.60;98.00;;;;;;5040953;28;19904;-75
2021/05/06 10:29:17;;;;;;;;;;;10.50;97.60;;;;;;5058576;28;20304;-75
2021/05/06 10:31:44;;;;;;;;;;;10.50;96.90;;;;;;5040800;28;19912;-74
2021/05/06 10:34:12;;;;;;;;;;;10.60;98.10;;;;;;5059017;28;20285;-74
2021/05/06 10:36:40;;;;;;;;;;;10.70;97.60;;;;;;5058332;28;20351;-73
2021/05/06 10:39:13;;;;;;;;;;;10.90;97.80;;;;;;5058647;28;19912;-74
2021/05/06 10:41:41;;;;;;;;;;;11.00;94.80;;;;;;5059213;28;19905;-74
2021/05/06 10:44:09;;;;;;;;;;;11.00;93.80;;;;;;5059512;28;19905;-74
2021/05/06 10:47:02;;;;;;;;;;;10.90;95.20;;;;;;5041593;28;19904;-74
2021/05/06 10:49:29;;;;;;;;;;;11.00;94.90;;;;;;5059836;28;19970;-74
2021/05/06 10:52:00;;;;;;;;;;;11.10;93.50;;;;;;5059642;28;19905;-73
2021/05/06 10:54:28;;;;;;;;;;;11.20;93.40;;;;;;5059273;28;19948;-73
2021/05/06 10:56:56;;;;;;;;;;;11.20;91.70;;;;;;5059339;28;19909;-73
2021/05/06 10:59:31;;;;;;;;;;;11.20;92.20;;;;;;5059460;28;19912;-73
2021/05/06 11:01:59;;;;;;;;;;;11.20;92.70;;;;;;5057876;28;20011;-76
2021/05/06 11:04:39;;;;;;;;;;;11.20;90.70;;;;;;5058198;28;20243;-74
2021/05/06 11:07:19;;;;;;;;;;;11.20;92.40;;;;;;5057914;28;19927;-74
2021/05/06 11:09:47;;;;;;;;;;;11.20;92.20;;;;;;5057884;28;19911;-76
2021/05/06 11:12:17;;;;;;;;;;;11.10;91.40;;;;;;5040211;28;20003;-73
2021/05/06 11:15:02;;;;;;;;;;;11.10;90.30;;;;;;5058060;28;19954;-75
2021/05/06 11:17:35;;;;;;;;;;;11.00;91.00;;;;;;5057475;28;19912;-76
2021/05/06 11:20:25;;;;;;;;;;;11.00;91.30;;;;;;5057828;28;19912;-76
2021/05/06 11:23:01;;;;;;;;;;;10.90;90.30;;;;;;5040042;28;20313;-73
2021/05/06 11:25:43;;;;;;;;;;;10.70;90.60;;;;;;5058923;28;19912;-74
2021/05/06 11:28:16;;;;;;;;;;;10.70;90.90;;;;;;5058889;28;19904;-76
2021/05/06 11:30:43;;;;;;;;;;;10.60;90.00;;;;;;5040646;28;19955;-76
2021/05/06 11:33:22;;;;;;;;;;;10.80;88.00;;;;;;5058952;28;19909;-76
2021/05/06 11:35:59;;;;;;;;;;;10.80;89.60;;;;;;5058196;28;19916;-76
2021/05/06 11:38:35;;;;;;;;;;;10.80;83.20;;;;;;5041127;28;19912;-76
2021/05/06 11:41:10;;;;;;;;;;;10.90;85.50;;;;;;5058803;28;20301;-76
2021/05/06 11:43:40;;;;;;;;;;;11.00;83.60;;;;;;5039559;28;19909;-76
2021/05/06 11:46:12;;;;;;;;;;;11.20;83.00;;;;;;5057213;28;19904;-76
2021/05/06 11:48:39;;;;;;;;;;;11.20;81.30;;;;;;5039653;28;19905;-77
2021/05/06 11:51:07;;;;;;;;;;;11.30;76.80;;;;;;5057381;28;19947;-76
2021/05/06 11:53:38;;;;;;;;;;;11.30;78.50;;;;;;5057193;28;19904;-77
2021/05/06 11:56:14;;;;;;;;;;;11.40;79.80;;;;;;5057151;28;19908;-76
2021/05/06 11:58:43;;;;;;;;;;;11.60;79.20;;;;;;5057106;28;19905;-76
2021/05/06 12:01:10;;;;;;;;;;;11.70;75.00;;;;;;5057238;28;19912;-77
2021/05/06 12:03:39;;;;;;;;;;;11.80;75.30;;;;;;5056914;28;19908;-76
2021/05/06 12:06:07;;;;;;;;;;;11.90;72.60;;;;;;5057936;28;19904;-76
2021/05/06 12:08:45;;;;;;;;;;;12.00;73.00;;;;;;5058106;28;19908;-76
2021/05/06 12:11:12;;;;;;;;;;;12.10;72.00;;;;;;5058168;28;19905;-76
2021/05/06 12:13:46;;;;;;;;;;;12.30;72.70;;;;;;5057891;28;19982;-76
2021/05/06 12:16:27;;;;;;;;;;;12.50;76.20;;;;;;5058288;28;19905;-76
2021/05/06 12:18:55;;;;;;;;;;;12.60;74.80;;;;;;5057783;28;19927;-76
2021/05/06 12:21:27;;;;;;;;;;;12.60;74.60;;;;;;5058094;28;19995;-76
2021/05/06 12:23:55;;;;;;;;;;;12.50;69.70;;;;;;5057643;28;19916;-76
2021/05/06 12:26:22;;;;;;;;;;;12.30;71.00;;;;;;5057247;28;19904;-76
2021/05/06 12:28:49;;;;;;;;;;;12.30;70.60;;;;;;5060380;28;19905;-76
2021/05/06 12:31:16;;;;;;;;;;;12.30;70.00;;;;;;5060974;28;20364;-76
2021/05/06 12:33:44;;;;;;;;;;;12.50;71.90;;;;;;5060871;28;19905;-76
2021/05/06 12:36:14;;;;;;;;;;;12.70;69.50;;;;;;5060920;28;19917;-76
2021/05/06 12:38:43;;;;;;;;;;;12.90;67.50;;;;;;5060701;28;19905;-76
2021/05/06 12:41:10;;;;;;;;;;;13.10;69.30;;;;;;5060803;28;19928;-76
2021/05/06 12:43:47;;;;;;;;;;;13.30;70.60;;;;;;5060594;28;19948;-76
2021/05/06 12:46:20;;;;;;;;;;;13.40;68.60;;;;;;5061007;28;19909;-76
2021/05/06 12:48:52;;;;;;;;;;;13.40;70.10;;;;;;5044012;28;19912;-76
2021/05/06 12:51:19;;;;;;;;;;;13.30;72.30;;;;;;5061810;28;19905;-76
2021/05/06 12:53:59;;;;;;;;;;;13.20;72.80;;;;;;5061378;28;19904;-76
2021/05/06 12:56:27;;;;;;;;;;;13.20;70.70;;;;;;5061823;28;19912;-76
2021/05/06 12:58:54;;;;;;;;;;;13.20;69.00;;;;;;5061355;28;19905;-76
2021/05/06 13:01:29;;;;;;;;;;;13.20;70.10;;;;;;5043607;28;20320;-76
2021/05/06 13:04:02;;;;;;;;;;;13.70;69.70;;;;;;5061826;28;20058;-74
2021/05/06 13:06:32;;;;;;;;;;;14.40;65.30;;;;;;5061048;28;20301;-74
2021/05/06 13:08:59;;;;;;;;;;;14.80;66.90;;;;;;5060519;28;19905;-74
2021/05/06 13:11:27;;;;;;;;;;;15.00;64.20;;;;;;5060510;28;20217;-74
2021/05/06 13:13:55;;;;;;;;;;;14.90;64.10;;;;;;5060147;28;19908;-74
2021/05/06 13:16:38;;;;;;;;;;;14.80;65.30;;;;;;5060225;28;19905;-76
2021/05/06 13:19:09;;;;;;;;;;;14.80;63.50;;;;;;5060297;28;20058;-76
2021/05/06 13:21:36;;;;;;;;;;;14.70;60.90;;;;;;5060181;28;19995;-76
2021/05/06 13:24:07;;;;;;;;;;;14.70;59.50;;;;;;5060233;28;20311;-76
2021/05/06 13:26:40;;;;;;;;;;;14.50;59.10;;;;;;5060348;28;19908;-76
2021/05/06 13:29:15;;;;;;;;;;;14.20;59.40;;;;;;5060382;28;20319;-76
2021/05/06 13:31:46;;;;;;;;;;;13.90;60.50;;;;;;5060790;28;19986;-76
2021/05/06 13:34:16;;;;;;;;;;;13.70;63.30;;;;;;5061225;28;19905;-76
2021/05/06 13:36:44;;;;;;;;;;;13.70;63.70;;;;;;5060622;28;20282;-77
2021/05/06 13:39:13;;;;;;;;;;;13.90;64.20;;;;;;5060162;28;19911;-76
2021/05/06 13:41:47;;;;;;;;;;;13.90;61.00;;;;;;5061056;28;19905;-76
2021/05/06 13:44:18;;;;;;;;;;;14.20;63.20;;;;;;5060487;28;20309;-76
2021/05/06 13:46:56;;;;;;;;;;;14.50;60.80;;;;;;5060831;28;19908;-76
2021/05/06 13:49:24;;;;;;;;;;;14.90;59.80;;;;;;5042003;28;19940;-76
2021/05/06 13:51:52;;;;;;;;;;;15.20;59.20;;;;;;5041649;28;20392;-76
2021/05/06 13:54:19;;;;;;;;;;;15.50;56.70;;;;;;5059683;28;19959;-76
2021/05/06 13:56:46;;;;;;;;;;;15.80;56.80;;;;;;5059855;28;19911;-74
2021/05/06 13:59:14;;;;;;;;;;;16.30;56.50;;;;;;5059865;28;19927;-74
2021/05/06 14:01:41;;;;;;;;;;;16.60;57.80;;;;;;5059404;28;19904;-74
2021/05/06 14:04:08;;;;;;;;;;;16.80;56.50;;;;;;5059376;28;19908;-73
2021/05/06 14:06:35;;;;;;;;;;;17.10;55.00;;;;;;5059701;28;19916;-76
2021/05/06 14:09:02;;;;;;;;;;;17.00;56.70;;;;;;5059083;28;19912;-77
2021/05/06 14:11:30;;;;;;;;;;;17.30;52.10;;;;;;5060350;28;20053;-76
2021/05/06 14:13:57;;;;;;;;;;;17.60;55.50;;;;;;5042075;28;19905;-72
2021/05/06 14:16:24;;;;;;;;;;;17.70;53.10;;;;;;5060484;28;19905;-74
2021/05/06 14:18:53;;;;;;;;;;;17.60;52.50;;;;;;5059802;28;19936;-71
2021/05/06 14:21:27;;;;;;;;;;;17.50;54.60;;;;;;5059699;28;19958;-71
2021/05/06 14:23:54;;;;;;;;;;;17.60;53.80;;;;;;5059578;28;20320;-71
2021/05/06 14:26:21;;;;;;;;;;;18.00;52.30;;;;;;5059724;28;20290;-72
2021/05/06 14:28:49;;;;;;;;;;;18.50;50.30;;;;;;5059385;28;20296;-71
2021/05/06 14:31:16;;;;;;;;;;;18.90;48.70;;;;;;5058682;28;19916;-71
2021/05/06 14:33:44;;;;;;;;;;;19.20;49.00;;;;;;5058572;28;19943;-72
2021/05/06 14:36:11;;;;;;;;;;;19.10;48.30;;;;;;5058343;28;19923;-72
2021/05/06 14:38:38;;;;;;;;;;;18.70;47.70;;;;;;5058422;28;19905;-71
2021/05/06 14:41:06;;;;;;;;;;;18.40;48.60;;;;;;5058842;28;19996;-71
2021/05/06 14:43:33;;;;;;;;;;;18.00;51.50;;;;;;5058401;28;20359;-71
2021/05/06 14:46:01;;;;;;;;;;;17.80;50.60;;;;;;5058641;28;19905;-74
2021/05/06 14:48:28;;;;;;;;;;;17.50;52.10;;;;;;5058569;28;20250;-71
2021/05/06 14:50:56;;;;;;;;;;;17.30;52.60;;;;;;5057922;28;19963;-71
2021/05/06 14:53:23;;;;;;;;;;;17.40;52.30;;;;;;5059179;28;19905;-70
2021/05/06 14:55:51;;;;;;;;;;;17.60;49.90;;;;;;5059394;28;19951;-70
2021/05/06 14:58:18;;;;;;;;;;;17.90;49.20;;;;;;5059208;28;19904;-70
2021/05/06 15:00:46;;;;;;;;;;;18.40;48.90;;;;;;5058932;28;19915;-71
2021/05/06 15:03:14;;;;;;;;;;;18.70;49.10;;;;;;5059441;28;20221;-72
2021/05/06 15:05:42;;;;;;;;;;;18.70;47.50;;;;;;5059253;28;19954;-71
2021/05/06 15:08:10;;;;;;;;;;;19.00;49.00;;;;;;5058780;28;19904;-72
2021/05/06 15:10:38;;;;;;;;;;;19.40;46.40;;;;;;5059018;28;19905;-72
2021/05/06 15:13:05;;;;;;;;;;;19.60;44.80;;;;;;5058347;28;19995;-70
2021/05/06 15:15:32;;;;;;;;;;;19.60;45.70;;;;;;5058035;28;20297;-72
2021/05/06 15:18:00;;;;;;;;;;;19.50;45.70;;;;;;5058224;28;19908;-73
2021/05/06 15:20:27;;;;;;;;;;;19.40;45.40;;;;;;5058166;28;19905;-71
2021/05/06 15:22:54;;;;;;;;;;;19.20;45.50;;;;;;5057630;28;19908;-71
2021/05/06 15:25:21;;;;;;;;;;;19.10;46.30;;;;;;5057626;28;19913;-72
2021/05/06 15:27:49;;;;;;;;;;;19.00;46.60;;;;;;5058002;28;20293;-72
2021/05/06 15:30:17;;;;;;;;;;;18.80;46.90;;;;;;5057664;28;20244;-72
2021/05/06 15:32:44;;;;;;;;;;;18.60;46.00;;;;;;5040047;28;19905;-72
2021/05/06 15:35:12;;;;;;;;;;;18.40;47.20;;;;;;5058481;28;19966;-72
2021/05/06 15:37:39;;;;;;;;;;;18.20;46.70;;;;;;5058495;28;19904;-72
2021/05/06 15:40:07;;;;;;;;;;;18.30;47.00;;;;;;5058513;28;19905;-71
2021/05/06 15:42:34;;;;;;;;;;;18.60;48.30;;;;;;5058146;28;19979;-70
2021/05/06 15:45:05;;;;;;;;;;;18.60;48.80;;;;;;5058628;28;19987;-70
2021/05/06 15:47:33;;;;;;;;;;;18.90;47.40;;;;;;5058145;28;19904;-71
2021/05/06 15:50:04;;;;;;;;;;;19.30;47.60;;;;;;5058735;28;19912;-70
2021/05/06 15:52:31;;;;;;;;;;;19.20;47.40;;;;;;5057413;28;19909;-71
2021/05/06 15:54:58;;;;;;;;;;;19.00;47.40;;;;;;5057563;28;19912;-71
2021/05/06 15:57:26;;;;;;;;;;;18.50;47.30;;;;;;5056951;28;19958;-71
2021/05/06 15:59:53;;;;;;;;;;;17.90;49.90;;;;;;5057271;28;20012;-71
2021/05/06 16:02:22;;;;;;;;;;;17.40;48.50;;;;;;5056975;28;19958;-72
2021/05/06 16:04:50;;;;;;;;;;;16.80;51.70;;;;;;5058088;28;19904;-71
2021/05/06 16:07:19;;;;;;;;;;;16.30;50.10;;;;;;5056768;28;19905;-71
2021/05/06 16:09:46;;;;;;;;;;;15.80;52.50;;;;;;5057205;28;19909;-72
2021/05/06 16:12:14;;;;;;;;;;;15.40;55.00;;;;;;5057189;28;19904;-72
2021/05/06 16:14:41;;;;;;;;;;;15.20;54.80;;;;;;5057283;28;19912;-72
2021/05/06 16:17:08;;;;;;;;;;;14.90;56.50;;;;;;5058477;28;19955;-72
2021/05/06 16:19:37;;;;;;;;;;;14.80;56.70;;;;;;5058014;28;20289;-74
2021/05/06 16:22:07;;;;;;;;;;;14.60;57.20;;;;;;5057798;28;20316;-71
2021/05/06 16:24:34;;;;;;;;;;;14.50;58.00;;;;;;5057624;28;20327;-71
2021/05/06 16:27:04;;;;;;;;;;;14.50;56.40;;;;;;5057931;28;19952;-73
2021/05/06 16:29:32;;;;;;;;;;;14.40;59.10;;;;;;5057421;28;19905;-71
2021/05/06 16:32:00;;;;;;;;;;;14.20;59.40;;;;;;5057749;28;19928;-72
2021/05/06 16:34:30;;;;;;;;;;;14.00;58.40;;;;;;5057164;28;19904;-72
2021/05/06 16:37:08;;;;;;;;;;;13.70;60.30;;;;;;5056080;28;19921;-73
2021/05/06 16:39:50;;;;;;;;;;;13.60;62.50;;;;;;5056481;28;19999;-71
2021/05/06 16:44:53;;;;;;;;;;;13.20;63.70;;;;;;5056569;28;19905;-71
2021/05/06 16:47:20;;;;;;;;;;;13.20;63.40;;;;;;5056233;28;20362;-74
2021/05/06 16:49:49;;;;;;;;;;;13.10;62.50;;;;;;5056722;28;19905;-72
2021/05/06 16:52:17;;;;;;;;;;;13.10;62.90;;;;;;5056570;28;19955;-72
2021/05/06 16:54:44;;;;;;;;;;;13.10;62.60;;;;;;5056783;28;19905;-72
2021/05/06 16:57:11;;;;;;;;;;;13.00;63.10;;;;;;5057594;28;19912;-72
2021/05/06 16:59:39;;;;;;;;;;;12.90;63.20;;;;;;5057854;28;19999;-74
2021/05/06 17:02:06;;;;;;;;;;;12.90;63.80;;;;;;5057414;28;20003;-74
2021/05/06 17:04:33;;;;;;;;;;;12.90;63.60;;;;;;5057285;28;19905;-72
2021/05/06 17:07:00;;;;;;;;;;;12.70;62.60;;;;;;5057540;28;19996;-72
2021/05/06 17:09:27;;;;;;;;;;;12.60;63.10;;;;;;5039592;28;20007;-72
2021/05/06 17:11:55;;;;;;;;;;;12.40;63.50;;;;;;5057621;28;19947;-74
2021/05/06 17:14:22;;;;;;;;;;;12.30;65.20;;;;;;5040159;28;19905;-72
2021/05/06 17:16:49;;;;;;;;;;;12.20;65.00;;;;;;5060591;28;19912;-72
2021/05/06 17:19:16;;;;;;;;;;;12.10;66.30;;;;;;5060254;28;19905;-72
2021/05/06 17:21:44;;;;;;;;;;;12.00;67.70;;;;;;5060234;28;20216;-72
2021/05/06 17:24:12;;;;;;;;;;;11.90;68.50;;;;;;5059879;28;20194;-73
2021/05/06 17:26:39;;;;;;;;;;;11.80;66.70;;;;;;5060182;28;19904;-72
2021/05/06 17:29:06;;;;;;;;;;;11.70;66.90;;;;;;5059765;28;19904;-72
2021/05/06 17:31:34;;;;;;;;;;;11.70;69.00;;;;;;5060234;28;19912;-72
2021/05/06 17:34:01;;;;;;;;;;;11.60;69.60;;;;;;5059684;28;19904;-72
2021/05/06 17:36:29;;;;;;;;;;;11.50;71.70;;;;;;5059577;28;20003;-72
2021/05/06 17:38:57;;;;;;;;;;;11.50;71.30;;;;;;5043405;28;19912;-72
2021/05/06 17:41:24;;;;;;;;;;;11.50;72.50;;;;;;5060481;28;19999;-72
2021/05/06 17:43:52;;;;;;;;;;;11.40;72.90;;;;;;5060668;28;19970;-72
2021/05/06 17:46:19;;;;;;;;;;;11.30;74.70;;;;;;5060899;28;19905;-72
2021/05/06 17:48:46;;;;;;;;;;;11.20;76.50;;;;;;5060635;28;19911;-72
2021/05/06 17:51:13;;;;;;;;;;;11.10;77.60;;;;;;5060501;28;19940;-72